• Join FlightAware (Why Join?)
  • Login
  • US Flag 
05:20PM EST


 

Airport Tracker/Info


-or-


 

Live Flight TrackerFlight Track Log ✈ UAL4846 ✈ 20-Apr-2013 ✈ KEWR - KPVD

Flight Track Log - Related Links

Times and Time Zones

All times are in EDT time to prevent confusion due to time zone crossing. See the UAL4846 flight status page for this flight to view local times or setup timezone preferences in your user account.

Time Position Orientation Groundspeed Altitude Reporting Facility
EDT Latitude Longitude Course Direction KTS MPH feet Rate Location/Type
12:01PM 40.6500 -74.1833 237° Southwest 154 177 1,400  Level New York TRACON
12:02PM 40.6333 -74.2167 237° Southwest 173 199 2,400 1,260 Climbing New York TRACON
12:03PM 40.6833 -74.2333 346° North 187 215 3,900 1,560 Climbing New York TRACON
12:04PM 40.7333 -74.2167 14° North 183 211 5,600 1,020 Climbing New York TRACON
12:05PM 40.8000 -74.2000 11° North 220 253 6,100 180 Climbing New York TRACON
12:06PM 40.8833 -74.1833 North 253 291 6,000  Descending New York TRACON
12:07PM 40.9500 -74.1833 360° North 263 303 6,100  Climbing New York TRACON
12:09PM 41.0703 -74.1553 10° North 253 291 6,100 420 Level Boston Center
12:10PM 41.1167 -74.1069 38° Northeast 210 242 7,300 1,080 Climbing Boston Center
12:11PM 41.1328 -74.0136 77° East 221 254 8,300 960 Climbing Boston Center
12:12PM 41.1464 -73.9286 78° East 237 273 9,300 960 Climbing Boston Center
12:13PM 41.1600 -73.8350 79° East 249 287 10,300 960 Climbing Boston Center
12:14PM 41.1736 -73.7417 79° East 257 296 11,300 720 Climbing Boston Center
12:16PM 41.1894 -73.6428 78° East 262 302 12,000 660 Climbing Boston Center
12:17PM 41.2072 -73.5300 78° East 279 321 12,800 540 Climbing Boston Center
12:18PM 41.2228 -73.4114 80° East 289 333 13,100 120 Climbing Boston Center
12:19PM 41.2425 -73.2903 78° East 307 353 13,100  Level Boston Center
12:20PM 41.2519 -73.1661 84° East 324 373 13,100  Level Boston Center
12:21PM 41.2589 -73.0419 86° East 335 386 13,100  Level Boston Center
12:22PM 41.2697 -72.9178 83° East 335 386 13,100 -60 Level Boston Center
12:23PM 41.2786 -72.7964 84° East 328 377 13,000 -60 Descending Boston Center
12:24PM 41.2872 -72.6831 84° East 336 387 13,000  Level Boston Center
12:25PM 41.2958 -72.5506 85° East 336 387 13,000 -60 Level Boston Center
12:26PM 41.3042 -72.4372 84° East 336 387 12,900 -480 Descending Boston Center
12:27PM 41.3125 -72.2825 86° East 348 400 12,100 -720 Descending Boston Center
12:27PM 41.3164 -72.2272 85° East 348 400 11,800 -600 Descending Boston Center
12:28PM 41.3228 -72.1803 80° East 348 400 11,600 -660 Descending Boston Center
12:28PM 41.3286 -72.0781 86° East 342 394 11,000 -600 Descending Boston Center
12:29PM 41.3328 -72.0447 81° East 342 394 11,000 -120 Level Boston Center
12:30PM 41.3383 -71.9258 86° East 328 377 10,900 -540 Descending Boston Center
12:30PM 41.3547 -71.8261 78° East 336 387 10,100 -1,020 Descending Boston Center
12:31PM 41.4106 -71.7786 33° Northeast 334 384 9,300 -1,140 Descending Boston Center
12:32PM 41.5100 -71.6889 34° Northeast 340 391 7,800 -1,200 Descending Boston Center
12:33PM 41.5806 -71.6242 34° Northeast 306 352 6,600 -1,260 Descending Boston Center
12:34PM 41.6508 -71.5622 33° Northeast 273 314 5,300 -840 Descending Boston Center
12:35PM 41.7089 -71.5197 29° Northeast 239 275 5,000 -180 Descending Boston Center
12:36PM 41.7628 -71.4800 29° Northeast 235 270 5,000 -540 Level Boston Center
12:37PM 41.8189 -71.4539 19° North 230 265 4,000 -1,140 Descending Boston Center
12:38PM 41.8792 -71.4308 16° North 225 259 2,900 -960 Descending Boston Center
12:39PM 41.8847 -71.3581 84° East 234 269 2,100 -360 Descending Boston Center
12:40PM 41.8261 -71.3508 175° South 213 245 2,200 -300 Climbing Boston Center
12:42PM 41.7764 -71.3850 207° Southwest 176 203 1,500 -840 Descending Boston Center
12:43PM 41.7456 -71.4106 212° Southwest 128 147 500 -1,020 Descending Boston Center